< < Back
Terminal Aerodrome Forecast


Current Version              Previous Versions:   1  2  3  4  5  6  7  8  9  

Terminal Aerodrome Forecast

603
FTUS42 KILM 031513 CCA
TAFFLO
TAF COR
KFLO 031513Z 0315/0412 23009KT P6SM SCT012 SCT035 BKN100
      TEMPO 0315/0319 SCT010 BKN015
     FM032000 27010KT P6SM VCTS SCT020CB BKN060 BKN120
     FM040100 23003KT P6SM FEW060 BKN120
     FM040700 28004KT 4SM BR SCT120=



Latest METAR

519
SAUS70 KWBC 040000 RRH
MTRFLO
METAR KFLO 032353Z 22007KT 10SM CLR 26/18 A2974 RMK AO2 SLP068 T02560183
10294 20256 55001


USA.gov is the U.S. government's official web portal to all federal, state and local government web resources and services.